TimeCST,TemperatureF,Dew PointF,Humidity,Sea Level PressureIn,VisibilityMPH,Wind Direction,Wind SpeedMPH,Gust SpeedMPH,PrecipitationIn,Events,Conditions,WindDirDegrees,DateUTC
12:15 AM,17.8,16.7,96,30.00,10.0,Calm,Calm,-,N/A,,Clear,0,2012-12-11 06:15:00
12:35 AM,17.2,15.8,94,29.99,10.0,SSW,4.6,-,N/A,,Clear,200,2012-12-11 06:35:00
12:55 AM,18.0,16.3,93,29.99,10.0,Calm,Calm,-,N/A,,Clear,0,2012-12-11 06:55:00
1:15 AM,17.6,15.8,93,29.99,10.0,South,3.5,-,N/A,,Clear,190,2012-12-11 07:15:00
1:35 AM,16.5,14.5,92,30.00,10.0,SSW,5.8,-,N/A,,Clear,200,2012-12-11 07:35:00
1:55 AM,17.4,15.6,93,30.00,10.0,SSW,3.5,-,N/A,,Clear,200,2012-12-11 07:55:00
2:15 AM,16.9,14.7,91,30.00,10.0,South,4.6,-,N/A,,Clear,190,2012-12-11 08:15:00
2:35 AM,16.3,14.5,93,30.00,10.0,South,5.8,-,N/A,,Clear,190,2012-12-11 08:35:00
2:55 AM,16.7,14.9,93,30.01,10.0,SSW,3.5,-,N/A,,Clear,200,2012-12-11 08:55:00
3:15 AM,16.3,14.5,93,30.00,10.0,SSW,5.8,-,N/A,,Clear,200,2012-12-11 09:15:00
3:35 AM,16.3,14.4,92,30.01,10.0,SSW,6.9,-,N/A,,Clear,210,2012-12-11 09:35:00
3:55 AM,16.0,14.0,92,30.00,10.0,SSW,5.8,-,N/A,,Clear,210,2012-12-11 09:55:00
4:15 AM,15.8,14.0,93,30.00,10.0,SSW,5.8,-,N/A,,Clear,200,2012-12-11 10:15:00
4:35 AM,16.0,13.8,91,30.00,10.0,South,3.5,-,N/A,,Clear,170,2012-12-11 10:35:00
4:55 AM,16.5,14.2,90,30.00,10.0,South,3.5,-,N/A,,Clear,190,2012-12-11 10:55:00
5:15 AM,16.3,14.0,90,30.00,10.0,Calm,Calm,-,N/A,,Clear,0,2012-12-11 11:15:00
5:35 AM,16.2,14.0,91,29.99,10.0,SSE,3.5,-,N/A,,Clear,160,2012-12-11 11:35:00
5:55 AM,15.8,13.8,92,29.99,10.0,SSE,4.6,-,N/A,,Clear,150,2012-12-11 11:55:00
6:15 AM,16.0,14.0,92,30.00,10.0,South,4.6,-,N/A,,Clear,170,2012-12-11 12:15:00
6:35 AM,16.7,14.7,92,30.00,10.0,South,5.8,-,N/A,,Clear,180,2012-12-11 12:35:00
6:55 AM,17.6,15.3,91,30.00,10.0,South,5.8,-,N/A,,Clear,180,2012-12-11 12:55:00
7:15 AM,17.8,15.4,91,30.01,10.0,South,8.1,-,N/A,,Clear,190,2012-12-11 13:15:00
7:35 AM,18.3,15.8,90,30.01,10.0,South,5.8,-,N/A,,Clear,170,2012-12-11 13:35:00
7:55 AM,19.4,15.8,86,30.00,10.0,South,6.9,-,N/A,,Clear,180,2012-12-11 13:55:00
8:15 AM,20.1,17.2,89,30.00,10.0,South,10.4,-,N/A,,Clear,180,2012-12-11 14:15:00
8:35 AM,22.1,17.6,83,30.01,10.0,South,12.7,-,N/A,,Clear,190,2012-12-11 14:35:00
8:55 AM,23.5,18.9,82,30.01,10.0,SSW,12.7,-,N/A,,Clear,200,2012-12-11 14:55:00
9:15 AM,24.4,19.6,82,30.01,10.0,South,12.7,-,N/A,,Clear,190,2012-12-11 15:15:00
9:35 AM,25.7,20.1,79,30.00,10.0,SSW,13.8,-,N/A,,Clear,200,2012-12-11 15:35:00
9:55 AM,27.3,20.5,75,30.02,10.0,SSW,12.7,-,N/A,,Clear,210,2012-12-11 15:55:00
10:15 AM,27.7,20.5,74,30.03,10.0,SSW,15.0,18.4,N/A,,Clear,210,2012-12-11 16:15:00
10:35 AM,28.4,19.2,69,30.04,10.0,SW,10.4,-,N/A,,Clear,220,2012-12-11 16:35:00
10:55 AM,29.3,19.2,66,30.03,10.0,SW,12.7,-,N/A,,Clear,220,2012-12-11 16:55:00
11:15 AM,30.6,20.3,66,30.03,10.0,WSW,9.2,-,N/A,,Scattered Clouds,240,2012-12-11 17:15:00
11:35 AM,31.5,20.5,64,30.02,10.0,SW,8.1,-,N/A,,Mostly Cloudy,230,2012-12-11 17:35:00
11:55 AM,31.8,20.7,63,30.03,10.0,SW,10.4,-,N/A,,Overcast,230,2012-12-11 17:55:00
12:15 PM,32.2,21.9,66,30.01,10.0,South,8.1,-,N/A,,Mostly Cloudy,190,2012-12-11 18:15:00
12:35 PM,33.3,22.1,64,30.02,10.0,SW,10.4,-,N/A,,Clear,220,2012-12-11 18:35:00
12:55 PM,33.4,22.3,64,30.02,10.0,SW,10.4,-,N/A,,Clear,230,2012-12-11 18:55:00
1:15 PM,34.5,22.1,61,30.02,10.0,SW,11.5,-,N/A,,Clear,220,2012-12-11 19:15:00
1:35 PM,34.5,21.9,60,30.02,10.0,SW,9.2,-,N/A,,Clear,230,2012-12-11 19:35:00
1:55 PM,34.9,21.9,59,30.01,10.0,SSW,9.2,-,N/A,,Clear,210,2012-12-11 19:55:00
2:15 PM,34.7,22.1,60,30.01,10.0,WSW,9.2,-,N/A,,Clear,240,2012-12-11 20:15:00
2:35 PM,34.9,22.5,61,30.01,10.0,SSW,10.4,-,N/A,,Clear,210,2012-12-11 20:35:00
2:55 PM,34.9,22.6,61,30.02,10.0,SSW,11.5,-,N/A,,Clear,210,2012-12-11 20:55:00
3:15 PM,34.3,22.1,61,30.02,10.0,SSW,12.7,-,N/A,,Clear,210,2012-12-11 21:15:00
3:35 PM,34.0,21.9,61,30.02,10.0,SW,9.2,-,N/A,,Clear,220,2012-12-11 21:35:00
3:55 PM,33.4,22.1,63,30.03,10.0,SW,6.9,-,N/A,,Clear,220,2012-12-11 21:55:00
4:15 PM,32.0,23.4,70,30.04,10.0,SSW,8.1,-,N/A,,Clear,210,2012-12-11 22:15:00
4:35 PM,31.5,23.4,72,30.04,10.0,SSW,5.8,-,N/A,,Clear,210,2012-12-11 22:35:00
4:55 PM,29.7,23.5,78,30.05,10.0,SSW,5.8,-,N/A,,Clear,200,2012-12-11 22:55:00
5:15 PM,29.5,23.9,80,30.06,10.0,SSW,4.6,-,N/A,,Clear,200,2012-12-11 23:15:00
5:35 PM,29.1,23.4,79,30.06,10.0,SSW,4.6,-,N/A,,Clear,200,2012-12-11 23:35:00
5:55 PM,29.1,23.2,78,30.08,10.0,SSW,4.6,-,N/A,,Clear,200,2012-12-11 23:55:00
6:15 PM,28.2,23.0,81,30.08,10.0,South,4.6,-,N/A,,Clear,190,2012-12-12 00:15:00
6:35 PM,28.4,22.6,79,30.08,10.0,SSW,6.9,-,N/A,,Clear,200,2012-12-12 00:35:00
6:55 PM,27.3,22.1,81,30.08,10.0,South,6.9,-,N/A,,Clear,190,2012-12-12 00:55:00
7:15 PM,28.4,22.8,80,30.08,10.0,South,8.1,-,N/A,,Clear,190,2012-12-12 01:15:00
7:35 PM,28.9,22.6,77,30.09,10.0,South,6.9,-,N/A,,Clear,180,2012-12-12 01:35:00
7:55 PM,29.3,22.6,76,30.09,10.0,South,8.1,-,N/A,,Clear,180,2012-12-12 01:55:00
8:15 PM,30.2,22.8,74,30.09,10.0,South,9.2,-,N/A,,Clear,180,2012-12-12 02:15:00
8:35 PM,29.3,22.6,76,30.10,10.0,South,8.1,-,N/A,,Clear,190,2012-12-12 02:35:00
8:55 PM,28.2,22.5,79,30.10,10.0,South,9.2,-,N/A,,Clear,190,2012-12-12 02:55:00
9:15 PM,27.3,22.1,81,30.11,10.0,South,8.1,-,N/A,,Clear,190,2012-12-12 03:15:00
9:35 PM,27.1,22.3,82,30.11,10.0,South,8.1,-,N/A,,Clear,190,2012-12-12 03:35:00
9:55 PM,26.1,21.7,84,30.12,10.0,South,6.9,-,N/A,,Clear,190,2012-12-12 03:55:00
10:15 PM,25.7,21.4,84,30.13,10.0,South,5.8,-,N/A,,Clear,190,2012-12-12 04:15:00
10:35 PM,26.1,21.6,83,30.14,10.0,SSW,6.9,-,N/A,,Clear,200,2012-12-12 04:35:00
10:55 PM,25.3,21.2,84,30.14,10.0,South,5.8,-,N/A,,Clear,190,2012-12-12 04:55:00
11:15 PM,26.4,21.6,82,30.14,10.0,SSW,5.8,-,N/A,,Clear,200,2012-12-12 05:15:00
11:35 PM,25.9,21.2,82,30.14,10.0,SSW,5.8,-,N/A,,Clear,210,2012-12-12 05:35:00
11:55 PM,25.5,20.8,82,30.15,10.0,South,6.9,-,N/A,,Clear,190,2012-12-12 05:55:00